PDG61 EGCM-EGCM
Flight info
| Callsign | PDG61 |
|---|---|
| Flight time | 0h 58m |
| Altitude | 500 |
| Route | LOW VOLTAGE POWERLINE INSPECTION |
| Aircraft | AS55/L-VGD/A |
Departure
| Time | 2026-04-22 19:31 |
|---|---|
| Airport | Leeds East Airport (EGCM) |
Arrival
| Time | 2026-04-22 20:30 |
|---|---|
| Airport | Leeds East Airport (EGCM) |
| Time | Latitude | Longitude | Altitude | Speed | Heading |
|---|---|---|---|---|---|
| 2026-04-22 19:22 | 53.83489 | -1.20146 | 30 ft | 0 kts | 0° |
| 2026-04-22 19:30 | 53.83490 | -1.20147 | 34 ft | 2 kts | 359° |
| 2026-04-22 19:31 | 53.83420 | -1.20058 | 33 ft | 41 kts | 126° |
| 2026-04-22 19:31 | 53.83515 | -1.19413 | 154 ft | 89 kts | 53° |
| 2026-04-22 19:31 | 53.83905 | -1.18639 | 775 ft | 88 kts | 50° |
| 2026-04-22 19:31 | 53.84290 | -1.17812 | 1120 ft | 107 kts | 39° |
| 2026-04-22 19:32 | 53.85153 | -1.18191 | 925 ft | 147 kts | 334° |
| 2026-04-22 19:32 | 53.85973 | -1.19193 | 995 ft | 148 kts | 314° |
| 2026-04-22 19:32 | 53.85915 | -1.20967 | 1041 ft | 153 kts | 260° |
| 2026-04-22 19:32 | 53.85668 | -1.22722 | 1056 ft | 154 kts | 256° |
| 2026-04-22 19:33 | 53.85387 | -1.24182 | 1203 ft | 151 kts | 252° |
| 2026-04-22 19:33 | 53.84844 | -1.25714 | 1286 ft | 151 kts | 231° |
| 2026-04-22 19:33 | 53.84190 | -1.27034 | 1470 ft | 148 kts | 220° |
| 2026-04-22 19:33 | 53.83491 | -1.28331 | 1450 ft | 153 kts | 224° |
| 2026-04-22 19:34 | 53.82686 | -1.29659 | 1294 ft | 164 kts | 219° |
| 2026-04-22 19:34 | 53.81893 | -1.30961 | 1328 ft | 155 kts | 220° |
| 2026-04-22 19:34 | 53.81107 | -1.32230 | 1313 ft | 157 kts | 219° |
| 2026-04-22 19:34 | 53.80338 | -1.33495 | 1373 ft | 152 kts | 218° |
| 2026-04-22 19:35 | 53.79565 | -1.34724 | 1326 ft | 158 kts | 221° |
| 2026-04-22 19:35 | 53.78757 | -1.35997 | 1308 ft | 153 kts | 217° |
| 2026-04-22 19:35 | 53.77942 | -1.37144 | 1269 ft | 154 kts | 213° |
| 2026-04-22 19:35 | 53.77084 | -1.38299 | 957 ft | 162 kts | 213° |
| 2026-04-22 19:36 | 53.76165 | -1.39287 | 895 ft | 157 kts | 203° |
| 2026-04-22 19:36 | 53.75253 | -1.39998 | 1218 ft | 137 kts | 202° |
| 2026-04-22 19:36 | 53.74331 | -1.40709 | 1154 ft | 152 kts | 201° |
| 2026-04-22 19:36 | 53.73351 | -1.41420 | 1077 ft | 149 kts | 197° |
| 2026-04-22 19:37 | 53.72345 | -1.42003 | 943 ft | 152 kts | 193° |
| 2026-04-22 19:37 | 53.71350 | -1.42489 | 1016 ft | 146 kts | 189° |
| 2026-04-22 19:37 | 53.70339 | -1.42885 | 1019 ft | 149 kts | 187° |
| 2026-04-22 19:37 | 53.69534 | -1.43799 | 1307 ft | 142 kts | 215° |
| 2026-04-22 19:38 | 53.68710 | -1.44771 | 1346 ft | 133 kts | 219° |
| 2026-04-22 19:38 | 53.68062 | -1.45824 | 1048 ft | 131 kts | 229° |
| 2026-04-22 19:38 | 53.67638 | -1.46894 | 782 ft | 98 kts | 200° |
| 2026-04-22 19:38 | 53.67462 | -1.46524 | 422 ft | 77 kts | 356° |
| 2026-04-22 19:39 | 53.67466 | -1.47039 | 283 ft | 27 kts | 139° |
| 2026-04-22 19:39 | 53.67462 | -1.46929 | 325 ft | 23 kts | 129° |
| 2026-04-22 19:39 | 53.67440 | -1.46985 | 300 ft | 16 kts | 165° |
| 2026-04-22 19:39 | 53.67252 | -1.46983 | 158 ft | 59 kts | 174° |
| 2026-04-22 19:40 | 53.66788 | -1.46916 | 180 ft | 74 kts | 171° |
| 2026-04-22 19:40 | 53.66235 | -1.46936 | 185 ft | 84 kts | 175° |
| 2026-04-22 19:40 | 53.65667 | -1.47011 | 216 ft | 81 kts | 181° |
| 2026-04-22 19:40 | 53.65116 | -1.47172 | 238 ft | 80 kts | 185° |
| 2026-04-22 19:41 | 53.64568 | -1.47118 | 242 ft | 77 kts | 163° |
| 2026-04-22 19:41 | 53.64050 | -1.46912 | 319 ft | 74 kts | 161° |
| 2026-04-22 19:41 | 53.63583 | -1.46603 | 348 ft | 74 kts | 147° |
| 2026-04-22 19:41 | 53.63069 | -1.46211 | 267 ft | 84 kts | 150° |
| 2026-04-22 19:42 | 53.62532 | -1.45869 | 282 ft | 77 kts | 153° |
| 2026-04-22 19:42 | 53.62116 | -1.45365 | 257 ft | 72 kts | 118° |
| 2026-04-22 19:42 | 53.61955 | -1.44593 | 281 ft | 68 kts | 103° |
| 2026-04-22 19:42 | 53.61659 | -1.43922 | 270 ft | 76 kts | 129° |
| 2026-04-22 19:43 | 53.61615 | -1.43254 | 404 ft | 58 kts | 284° |
| 2026-04-22 19:43 | 53.61598 | -1.43017 | 347 ft | 48 kts | 116° |
| 2026-04-22 19:43 | 53.61251 | -1.42718 | 319 ft | 58 kts | 137° |
| 2026-04-22 19:44 | 53.60958 | -1.42428 | 294 ft | 49 kts | 125° |
| 2026-04-22 19:44 | 53.60612 | -1.42098 | 300 ft | 57 kts | 129° |
| 2026-04-22 19:44 | 53.60320 | -1.41600 | 322 ft | 63 kts | 130° |
| 2026-04-22 19:44 | 53.60039 | -1.41072 | 404 ft | 52 kts | 116° |
| 2026-04-22 19:45 | 53.59719 | -1.40595 | 295 ft | 70 kts | 129° |
| 2026-04-22 19:45 | 53.59312 | -1.40170 | 295 ft | 72 kts | 160° |
| 2026-04-22 19:45 | 53.58784 | -1.39983 | 279 ft | 83 kts | 162° |
| 2026-04-22 19:45 | 53.58255 | -1.40096 | 268 ft | 58 kts | 140° |
| 2026-04-22 19:46 | 53.58009 | -1.40106 | 227 ft | 27 kts | 107° |
| 2026-04-22 19:46 | 53.57756 | -1.40115 | 194 ft | 54 kts | 172° |
| 2026-04-22 19:46 | 53.57342 | -1.40213 | 209 ft | 67 kts | 176° |
| 2026-04-22 19:46 | 53.56882 | -1.40045 | 236 ft | 68 kts | 152° |
| 2026-04-22 19:47 | 53.56394 | -1.39775 | 215 ft | 77 kts | 153° |
| 2026-04-22 19:47 | 53.55886 | -1.39490 | 229 ft | 75 kts | 151° |
| 2026-04-22 19:47 | 53.55384 | -1.39253 | 233 ft | 77 kts | 161° |
| 2026-04-22 19:47 | 53.54864 | -1.39041 | 245 ft | 78 kts | 155° |
| 2026-04-22 19:48 | 53.54346 | -1.38877 | 298 ft | 65 kts | 162° |
| 2026-04-22 19:48 | 53.53942 | -1.38691 | 295 ft | 50 kts | 147° |
| 2026-04-22 19:48 | 53.53632 | -1.38555 | 296 ft | 53 kts | 156° |
| 2026-04-22 19:48 | 53.53191 | -1.38396 | 219 ft | 72 kts | 155° |
| 2026-04-22 19:49 | 53.52678 | -1.38176 | 187 ft | 79 kts | 159° |
| 2026-04-22 19:49 | 53.52132 | -1.37971 | 177 ft | 79 kts | 160° |
| 2026-04-22 19:49 | 53.51709 | -1.37999 | 224 ft | 38 kts | 197° |
| 2026-04-22 19:49 | 53.51432 | -1.38264 | 218 ft | 59 kts | 203° |
| 2026-04-22 19:50 | 53.51138 | -1.38522 | 242 ft | 48 kts | 115° |
| 2026-04-22 19:50 | 53.50800 | -1.38350 | 279 ft | 48 kts | 152° |
| 2026-04-22 19:50 | 53.50493 | -1.38204 | 313 ft | 51 kts | 149° |
| 2026-04-22 19:50 | 53.50262 | -1.37934 | 317 ft | 22 kts | 95° |
| 2026-04-22 19:51 | 53.50251 | -1.37892 | 352 ft | 3 kts | 67° |
| 2026-04-22 19:51 | 53.50231 | -1.37906 | 386 ft | 42 kts | 258° |
| 2026-04-22 19:51 | 53.50030 | -1.38448 | 309 ft | 23 kts | 141° |
| 2026-04-22 19:51 | 53.50177 | -1.38276 | 353 ft | 54 kts | 33° |
| 2026-04-22 19:52 | 53.50545 | -1.38003 | 387 ft | 60 kts | 36° |
| 2026-04-22 19:52 | 53.50858 | -1.37508 | 348 ft | 64 kts | 56° |
| 2026-04-22 19:52 | 53.51156 | -1.37015 | 289 ft | 58 kts | 40° |
| 2026-04-22 19:52 | 53.51143 | -1.37167 | 309 ft | 30 kts | 107° |
| 2026-04-22 19:53 | 53.51092 | -1.36962 | 298 ft | 14 kts | 107° |
| 2026-04-22 19:53 | 53.50928 | -1.36675 | 336 ft | 39 kts | 67° |
| 2026-04-22 19:53 | 53.51033 | -1.36852 | 180 ft | 9 kts | 293° |
| 2026-04-22 19:53 | 53.51065 | -1.36914 | 184 ft | 12 kts | 316° |
| 2026-04-22 19:54 | 53.50881 | -1.37349 | 381 ft | 94 kts | 197° |
| 2026-04-22 19:54 | 53.50926 | -1.36818 | 233 ft | 65 kts | 39° |
| 2026-04-22 19:54 | 53.50978 | -1.36790 | 219 ft | 38 kts | 204° |
| 2026-04-22 19:54 | 53.50573 | -1.37347 | 380 ft | 83 kts | 215° |
| 2026-04-22 19:55 | 53.50161 | -1.37883 | 285 ft | 70 kts | 194° |
| 2026-04-22 19:55 | 53.50050 | -1.37934 | 334 ft | 10 kts | 32° |
| 2026-04-22 19:55 | 53.50108 | -1.38065 | 297 ft | 29 kts | 57° |
| 2026-04-22 19:55 | 53.50031 | -1.37607 | 285 ft | 33 kts | 121° |
| 2026-04-22 19:56 | 53.50005 | -1.37489 | 266 ft | 15 kts | 102° |
| 2026-04-22 19:56 | 53.49874 | -1.37684 | 254 ft | 79 kts | 281° |
| 2026-04-22 19:56 | 53.50000 | -1.37895 | 216 ft | 42 kts | 103° |
| 2026-04-22 19:56 | 53.49818 | -1.37349 | 176 ft | 58 kts | 111° |
| 2026-04-22 19:57 | 53.49401 | -1.37286 | 258 ft | 51 kts | 159° |
| 2026-04-22 19:57 | 53.49099 | -1.37132 | 269 ft | 42 kts | 134° |
| 2026-04-22 19:57 | 53.48871 | -1.36865 | 285 ft | 29 kts | 113° |
| 2026-04-22 19:57 | 53.48680 | -1.36725 | 296 ft | 19 kts | 111° |
| 2026-04-22 19:58 | 53.48512 | -1.36570 | 320 ft | 37 kts | 139° |
| 2026-04-22 19:58 | 53.48316 | -1.36321 | 346 ft | 44 kts | 112° |
| 2026-04-22 19:58 | 53.48144 | -1.35771 | 302 ft | 62 kts | 100° |
| 2026-04-22 19:58 | 53.48172 | -1.35053 | 298 ft | 62 kts | 86° |
| 2026-04-22 19:59 | 53.48242 | -1.34393 | 320 ft | 60 kts | 86° |
| 2026-04-22 20:00 | 53.46205 | -1.32237 | 267 ft | 23 kts | 52° |
| 2026-04-22 20:00 | 53.46260 | -1.32393 | 364 ft | 34 kts | 71° |
| 2026-04-22 20:01 | 53.46374 | -1.32394 | 510 ft | 56 kts | 233° |
| 2026-04-22 20:01 | 53.46292 | -1.32313 | 286 ft | 89 kts | 43° |
| 2026-04-22 20:01 | 53.46783 | -1.31971 | 348 ft | 48 kts | 18° |
| 2026-04-22 20:01 | 53.46827 | -1.31702 | 178 ft | 10 kts | 94° |
| 2026-04-22 20:02 | 53.46832 | -1.31692 | 106 ft | 3 kts | 44° |
| 2026-04-22 20:02 | 53.46974 | -1.31884 | 170 ft | 32 kts | 46° |
| 2026-04-22 20:02 | 53.47302 | -1.31729 | 235 ft | 61 kts | 8° |
| 2026-04-22 20:02 | 53.47652 | -1.31575 | 250 ft | 52 kts | 35° |
| 2026-04-22 20:03 | 53.47847 | -1.31147 | 213 ft | 49 kts | 82° |
| 2026-04-22 20:03 | 53.48027 | -1.30844 | 233 ft | 33 kts | 55° |
| 2026-04-22 20:03 | 53.48243 | -1.30646 | 224 ft | 41 kts | 7° |
| 2026-04-22 20:03 | 53.48535 | -1.30647 | 178 ft | 44 kts | 24° |
| 2026-04-22 20:04 | 53.48840 | -1.30656 | 174 ft | 41 kts | 21° |
| 2026-04-22 20:04 | 53.49132 | -1.30711 | 161 ft | 48 kts | 14° |
| 2026-04-22 20:04 | 53.49494 | -1.30937 | 196 ft | 37 kts | 346° |
| 2026-04-22 20:04 | 53.49605 | -1.31180 | 190 ft | 28 kts | 271° |
| 2026-04-22 20:05 | 53.49587 | -1.31443 | 201 ft | 67 kts | 294° |
| 2026-04-22 20:05 | 53.49706 | -1.31933 | 249 ft | 55 kts | 317° |
| 2026-04-22 20:05 | 53.50024 | -1.32512 | 234 ft | 72 kts | 300° |
| 2026-04-22 20:05 | 53.50261 | -1.32920 | 182 ft | 26 kts | 317° |
| 2026-04-22 20:06 | 53.50320 | -1.33007 | 176 ft | 13 kts | 127° |
| 2026-04-22 20:06 | 53.50034 | -1.32823 | 205 ft | 56 kts | 118° |
| 2026-04-22 20:06 | 53.49663 | -1.32960 | 194 ft | 47 kts | 134° |
| 2026-04-22 20:06 | 53.49572 | -1.32669 | 253 ft | 50 kts | 80° |
| 2026-04-22 20:07 | 53.49627 | -1.32070 | 213 ft | 42 kts | 73° |
| 2026-04-22 20:07 | 53.49533 | -1.31795 | 237 ft | 4 kts | 12° |
| 2026-04-22 20:07 | 53.49571 | -1.32495 | 219 ft | 101 kts | 251° |
| 2026-04-22 20:07 | 53.49996 | -1.32854 | 227 ft | 83 kts | 19° |
| 2026-04-22 20:08 | 53.50176 | -1.32333 | 156 ft | 45 kts | 113° |
| 2026-04-22 20:08 | 53.49938 | -1.32158 | 115 ft | 35 kts | 145° |
| 2026-04-22 20:08 | 53.49674 | -1.32031 | 210 ft | 51 kts | 138° |
| 2026-04-22 20:08 | 53.49687 | -1.31780 | 199 ft | 7 kts | 230° |
| 2026-04-22 20:09 | 53.49697 | -1.32114 | 218 ft | 62 kts | 320° |
| 2026-04-22 20:09 | 53.50067 | -1.32514 | 337 ft | 78 kts | 257° |
| 2026-04-22 20:09 | 53.50252 | -1.32922 | 148 ft | 30 kts | 327° |
| 2026-04-22 20:09 | 53.50409 | -1.33058 | 159 ft | 32 kts | 34° |
| 2026-04-22 20:10 | 53.50624 | -1.33358 | 229 ft | 44 kts | 324° |
| 2026-04-22 20:10 | 53.50835 | -1.33610 | 224 ft | 40 kts | 39° |
| 2026-04-22 20:10 | 53.51054 | -1.33394 | 312 ft | 39 kts | 51° |
| 2026-04-22 20:10 | 53.51186 | -1.32987 | 405 ft | 37 kts | 135° |
| 2026-04-22 20:11 | 53.51014 | -1.33274 | 497 ft | 53 kts | 269° |
| 2026-04-22 20:11 | 53.51110 | -1.33215 | 357 ft | 70 kts | 159° |
| 2026-04-22 20:11 | 53.51160 | -1.33357 | 132 ft | 56 kts | 303° |
| 2026-04-22 20:11 | 53.51307 | -1.33975 | 146 ft | 57 kts | 315° |
| 2026-04-22 20:12 | 53.51631 | -1.34462 | 139 ft | 69 kts | 346° |
| 2026-04-22 20:12 | 53.51990 | -1.35031 | 154 ft | 80 kts | 305° |
| 2026-04-22 20:12 | 53.52251 | -1.35767 | 165 ft | 66 kts | 330° |
| 2026-04-22 20:12 | 53.52577 | -1.35869 | 169 ft | 40 kts | 33° |
| 2026-04-22 20:13 | 53.52836 | -1.35808 | 154 ft | 37 kts | 21° |
| 2026-04-22 20:13 | 53.53071 | -1.35656 | 170 ft | 37 kts | 20° |
| 2026-04-22 20:13 | 53.53297 | -1.35505 | 168 ft | 26 kts | 38° |
| 2026-04-22 20:13 | 53.53534 | -1.35509 | 216 ft | 47 kts | 11° |
| 2026-04-22 20:14 | 53.53938 | -1.35651 | 150 ft | 73 kts | 352° |
| 2026-04-22 20:14 | 53.54407 | -1.35706 | 272 ft | 54 kts | 356° |
| 2026-04-22 20:14 | 53.54702 | -1.36107 | 323 ft | 60 kts | 278° |
| 2026-04-22 20:14 | 53.54727 | -1.36491 | 236 ft | 6 kts | 117° |
| 2026-04-22 20:15 | 53.54658 | -1.36217 | 232 ft | 38 kts | 107° |
| 2026-04-22 20:15 | 53.54280 | -1.36094 | 197 ft | 55 kts | 106° |
| 2026-04-22 20:15 | 53.53934 | -1.36004 | 201 ft | 78 kts | 186° |
| 2026-04-22 20:15 | 53.53896 | -1.36038 | 184 ft | 88 kts | 2° |
| 2026-04-22 20:16 | 53.54451 | -1.36086 | 257 ft | 77 kts | 5° |
| 2026-04-22 20:16 | 53.54726 | -1.36465 | 358 ft | 38 kts | 96° |
| 2026-04-22 20:16 | 53.54575 | -1.35912 | 243 ft | 61 kts | 118° |
| 2026-04-22 20:16 | 53.54076 | -1.35739 | 169 ft | 81 kts | 162° |
| 2026-04-22 20:17 | 53.53530 | -1.35642 | 242 ft | 76 kts | 206° |
| 2026-04-22 20:17 | 53.53108 | -1.36267 | 285 ft | 74 kts | 190° |
| 2026-04-22 20:17 | 53.52576 | -1.36577 | 204 ft | 85 kts | 183° |
| 2026-04-22 20:17 | 53.52012 | -1.36864 | 195 ft | 82 kts | 175° |
| 2026-04-22 20:18 | 53.51626 | -1.36821 | 211 ft | 29 kts | 188° |
| 2026-04-22 20:18 | 53.51528 | -1.36854 | 164 ft | 4 kts | 188° |
| 2026-04-22 20:18 | 53.51107 | -1.37126 | 216 ft | 121 kts | 206° |
| 2026-04-22 20:18 | 53.51136 | -1.37698 | 913 ft | 96 kts | 7° |
| 2026-04-22 20:19 | 53.51876 | -1.37727 | 1296 ft | 109 kts | 11° |
| 2026-04-22 20:19 | 53.52606 | -1.37743 | 1652 ft | 119 kts | 8° |
| 2026-04-22 20:19 | 53.53507 | -1.37786 | 1722 ft | 134 kts | 7° |
| 2026-04-22 20:19 | 53.54451 | -1.38093 | 1756 ft | 142 kts | 358° |
| 2026-04-22 20:20 | 53.55414 | -1.38463 | 1791 ft | 143 kts | 357° |
| 2026-04-22 20:20 | 53.56370 | -1.38841 | 1690 ft | 146 kts | 356° |
| 2026-04-22 20:20 | 53.57373 | -1.39237 | 1575 ft | 142 kts | 355° |
| 2026-04-22 20:20 | 53.58326 | -1.39647 | 1557 ft | 142 kts | 353° |
| 2026-04-22 20:21 | 53.59285 | -1.40140 | 1568 ft | 146 kts | 349° |
| 2026-04-22 20:21 | 53.60231 | -1.40737 | 1567 ft | 145 kts | 346° |
| 2026-04-22 20:21 | 53.61179 | -1.41369 | 1553 ft | 148 kts | 348° |
| 2026-04-22 20:21 | 53.62154 | -1.41559 | 1656 ft | 142 kts | 2° |
| 2026-04-22 20:22 | 53.63120 | -1.41735 | 1735 ft | 138 kts | 3° |
| 2026-04-22 20:22 | 53.64096 | -1.41728 | 1832 ft | 138 kts | 10° |
| 2026-04-22 20:22 | 53.65019 | -1.41699 | 1926 ft | 131 kts | 7° |
| 2026-04-22 20:22 | 53.65955 | -1.41741 | 1871 ft | 140 kts | 353° |
| 2026-04-22 20:23 | 53.66871 | -1.42170 | 1842 ft | 136 kts | 2° |
| 2026-04-22 20:23 | 53.67841 | -1.42296 | 1833 ft | 137 kts | 6° |
| 2026-04-22 20:23 | 53.68776 | -1.42361 | 1942 ft | 127 kts | 5° |
| 2026-04-22 20:23 | 53.69749 | -1.42440 | 1707 ft | 145 kts | 7° |
| 2026-04-22 20:24 | 53.70692 | -1.42226 | 1782 ft | 136 kts | 19° |
| 2026-04-22 20:24 | 53.71638 | -1.41979 | 1790 ft | 138 kts | 15° |
| 2026-04-22 20:24 | 53.72550 | -1.41643 | 1905 ft | 132 kts | 23° |
| 2026-04-22 20:24 | 53.73403 | -1.41087 | 1914 ft | 132 kts | 30° |
| 2026-04-22 20:25 | 53.74263 | -1.40380 | 1880 ft | 136 kts | 34° |
| 2026-04-22 20:25 | 53.75093 | -1.39601 | 1812 ft | 137 kts | 35° |
| 2026-04-22 20:25 | 53.75907 | -1.38811 | 1775 ft | 135 kts | 34° |
| 2026-04-22 20:25 | 53.76700 | -1.38008 | 1606 ft | 140 kts | 39° |
| 2026-04-22 20:26 | 53.77515 | -1.37006 | 1194 ft | 143 kts | 44° |
| 2026-04-22 20:26 | 53.78148 | -1.35834 | 1161 ft | 134 kts | 67° |
| 2026-04-22 20:26 | 53.78527 | -1.34400 | 1082 ft | 134 kts | 61° |
| 2026-04-22 20:26 | 53.79028 | -1.33074 | 998 ft | 135 kts | 61° |
| 2026-04-22 20:27 | 53.79573 | -1.31759 | 853 ft | 137 kts | 58° |
| 2026-04-22 20:27 | 53.80072 | -1.30404 | 726 ft | 135 kts | 61° |
| 2026-04-22 20:27 | 53.80498 | -1.29016 | 620 ft | 135 kts | 66° |
| 2026-04-22 20:27 | 53.80893 | -1.27608 | 654 ft | 130 kts | 67° |
| 2026-04-22 20:28 | 53.81236 | -1.26225 | 728 ft | 126 kts | 72° |
| 2026-04-22 20:28 | 53.81498 | -1.24948 | 836 ft | 87 kts | 72° |
| 2026-04-22 20:28 | 53.81630 | -1.24051 | 679 ft | 75 kts | 76° |
| 2026-04-22 20:28 | 53.81841 | -1.23314 | 604 ft | 73 kts | 64° |
| 2026-04-22 20:29 | 53.82153 | -1.22626 | 366 ft | 86 kts | 55° |
| 2026-04-22 20:29 | 53.82497 | -1.21834 | 258 ft | 75 kts | 54° |
| 2026-04-22 20:29 | 53.82774 | -1.21161 | 151 ft | 68 kts | 60° |
| 2026-04-22 20:29 | 53.83040 | -1.20521 | 66 ft | 66 kts | 57° |
| 2026-04-22 20:30 | 53.83251 | -1.20019 | 52 ft | 23 kts | 51° |
| 2026-04-22 20:30 | 53.83414 | -1.20044 | 45 ft | 33 kts | 228° |
| 2026-04-22 20:30 | 53.83490 | -1.20131 | 55 ft | 8 kts | 153° |
| 2026-04-22 20:30 | 53.83479 | -1.20137 | 29 ft | 0 kts | 174° |